sensor_id;sensor_type;location;lat;lon;timestamp;pressure;altitude;pressure_sealevel;temperature;humidity
62725;BME280;49026;52.600;4.694;2023-02-04T00:01:58;103327.66;;;6.17;86.40
62725;BME280;49026;52.600;4.694;2023-02-04T00:04:23;103330.28;;;6.18;86.52
62725;BME280;49026;52.600;4.694;2023-02-04T00:06:48;103319.84;;;6.20;86.25
62725;BME280;49026;52.600;4.694;2023-02-04T00:09:14;103330.28;;;6.20;86.94
62725;BME280;49026;52.600;4.694;2023-02-04T00:11:40;103335.50;;;6.20;87.32
62725;BME280;49026;52.600;4.694;2023-02-04T00:14:06;103332.88;;;6.17;86.80
62725;BME280;49026;52.600;4.694;2023-02-04T00:16:34;103341.50;;;6.14;86.82
62725;BME280;49026;52.600;4.694;2023-02-04T00:18:59;103349.31;;;6.12;86.88
62725;BME280;49026;52.600;4.694;2023-02-04T00:21:25;103355.38;;;6.10;87.25
62725;BME280;49026;52.600;4.694;2023-02-04T00:23:50;103351.84;;;6.08;86.88
62725;BME280;49026;52.600;4.694;2023-02-04T00:26:16;103347.47;;;6.07;87.17
62725;BME280;49026;52.600;4.694;2023-02-04T00:28:44;103347.44;;;6.05;87.39
62725;BME280;49026;52.600;4.694;2023-02-04T00:31:10;103356.13;;;6.04;87.11
62725;BME280;49026;52.600;4.694;2023-02-04T00:33:35;103350.03;;;6.04;86.82
62725;BME280;49026;52.600;4.694;2023-02-04T00:36:08;103350.84;;;6.01;86.72
62725;BME280;49026;52.600;4.694;2023-02-04T00:38:33;103349.91;;;5.98;87.37
62725;BME280;49026;52.600;4.694;2023-02-04T00:40:59;103350.69;;;5.93;87.06
62725;BME280;49026;52.600;4.694;2023-02-04T00:43:24;103349.78;;;5.91;86.79
62725;BME280;49026;52.600;4.694;2023-02-04T00:45:52;103355.00;;;5.91;86.68
62725;BME280;49026;52.600;4.694;2023-02-04T00:48:17;103361.13;;;5.93;87.04
62725;BME280;49026;52.600;4.694;2023-02-04T00:50:42;103360.25;;;5.94;87.18
62725;BME280;49026;52.600;4.694;2023-02-04T00:53:07;103361.25;;;5.98;87.37
62725;BME280;49026;52.600;4.694;2023-02-04T00:55:36;103351.69;;;5.99;87.14
62725;BME280;49026;52.600;4.694;2023-02-04T00:58:01;103353.41;;;6.00;87.65
62725;BME280;49026;52.600;4.694;2023-02-04T01:00:26;103347.38;;;6.02;87.19
62725;BME280;49026;52.600;4.694;2023-02-04T01:02:52;103353.47;;;6.03;87.26
62725;BME280;49026;52.600;4.694;2023-02-04T01:05:17;103360.44;;;6.02;87.55
62725;BME280;49026;52.600;4.694;2023-02-04T01:07:42;103368.31;;;6.04;88.03
62725;BME280;49026;52.600;4.694;2023-02-04T01:10:09;103366.63;;;6.07;87.95
62725;BME280;49026;52.600;4.694;2023-02-04T01:12:42;103351.03;;;6.10;87.91
62725;BME280;49026;52.600;4.694;2023-02-04T01:15:10;103368.50;;;6.15;87.75
62725;BME280;49026;52.600;4.694;2023-02-04T01:17:35;103371.16;;;6.18;88.45
62725;BME280;49026;52.600;4.694;2023-02-04T01:20:01;103379.09;;;6.22;88.03
62725;BME280;49026;52.600;4.694;2023-02-04T01:22:26;103383.50;;;6.26;87.96
62725;BME280;49026;52.600;4.694;2023-02-04T01:24:51;103384.44;;;6.28;87.98
62725;BME280;49026;52.600;4.694;2023-02-04T01:27:17;103389.72;;;6.32;88.66
62725;BME280;49026;52.600;4.694;2023-02-04T01:29:44;103392.34;;;6.35;88.13
62725;BME280;49026;52.600;4.694;2023-02-04T01:32:10;103389.81;;;6.38;88.96
62725;BME280;49026;52.600;4.694;2023-02-04T01:34:37;103392.47;;;6.41;88.78
62725;BME280;49026;52.600;4.694;2023-02-04T01:37:02;103396.00;;;6.43;88.60
62725;BME280;49026;52.600;4.694;2023-02-04T01:39:28;103399.53;;;6.45;88.64
62725;BME280;49026;52.600;4.694;2023-02-04T01:41:53;103408.28;;;6.47;89.17
62725;BME280;49026;52.600;4.694;2023-02-04T01:44:18;103414.41;;;6.49;88.74
62725;BME280;49026;52.600;4.694;2023-02-04T01:46:46;103412.72;;;6.53;88.77
62725;BME280;49026;52.600;4.694;2023-02-04T01:49:12;103415.34;;;6.53;88.70
62725;BME280;49026;52.600;4.694;2023-02-04T01:51:37;103420.59;;;6.54;89.14
62725;BME280;49026;52.600;4.694;2023-02-04T01:54:09;103410.97;;;6.52;89.70
62725;BME280;49026;52.600;4.694;2023-02-04T01:56:35;103416.19;;;6.50;88.77
62725;BME280;49026;52.600;4.694;2023-02-04T01:59:01;103414.41;;;6.49;88.84
62725;BME280;49026;52.600;4.694;2023-02-04T02:01:52;103416.16;;;6.48;88.59
62725;BME280;49026;52.600;4.694;2023-02-04T02:04:29;103416.22;;;6.52;88.37
62725;BME280;49026;52.600;4.694;2023-02-04T02:06:57;103413.56;;;6.50;88.63
62725;BME280;49026;52.600;4.694;2023-02-04T02:09:26;103411.78;;;6.49;89.04
62725;BME280;49026;52.600;4.694;2023-02-04T02:11:54;103419.66;;;6.51;89.10
62725;BME280;49026;52.600;4.694;2023-02-04T02:14:20;103424.88;;;6.51;88.55
62725;BME280;49026;52.600;4.694;2023-02-04T02:16:47;103424.91;;;6.52;nan
62725;BME280;49026;52.600;4.694;2023-02-04T02:19:18;103432.78;;;6.54;89.54
62725;BME280;49026;52.600;4.694;2023-02-04T02:22:04;103436.28;;;6.56;88.97
62725;BME280;49026;52.600;4.694;2023-02-04T02:24:34;103446.78;;;6.57;88.81
62725;BME280;49026;52.600;4.694;2023-02-04T02:27:03;103450.28;;;6.59;89.43
62725;BME280;49026;52.600;4.694;2023-02-04T02:29:31;103445.06;;;6.59;88.88
62725;BME280;49026;52.600;4.694;2023-02-04T02:31:59;103450.28;;;6.59;88.70
62725;BME280;49026;52.600;4.694;2023-02-04T02:34:25;103459.91;;;6.60;89.03
62725;BME280;49026;52.600;4.694;2023-02-04T02:36:54;103450.28;;;6.59;89.24
62725;BME280;49026;52.600;4.694;2023-02-04T02:39:20;103447.66;;;6.59;89.34
62725;BME280;49026;52.600;4.694;2023-02-04T02:41:46;103452.00;;;6.57;89.74
62725;BME280;49026;52.600;4.694;2023-02-04T02:44:13;103445.00;;;6.56;89.66
62725;BME280;49026;52.600;4.694;2023-02-04T02:46:43;103452.81;;;6.55;89.37
62725;BME280;49026;52.600;4.694;2023-02-04T02:49:14;103442.34;;;6.55;89.20
62725;BME280;49026;52.600;4.694;2023-02-04T02:51:40;103446.66;;;6.51;89.40
62725;BME280;49026;52.600;4.694;2023-02-04T02:54:17;103447.47;;;6.47;89.28
62725;BME280;49026;52.600;4.694;2023-02-04T02:56:43;103443.91;;;6.43;88.76
62725;BME280;49026;52.600;4.694;2023-02-04T02:59:16;103450.81;;;6.41;89.13
62725;BME280;49026;52.600;4.694;2023-02-04T03:01:42;103447.31;;;6.39;89.20
62725;BME280;49026;52.600;4.694;2023-02-04T03:04:08;103447.28;;;6.38;89.40
62725;BME280;49026;52.600;4.694;2023-02-04T03:06:34;103451.59;;;6.36;89.56
62725;BME280;49026;52.600;4.694;2023-02-04T03:09:00;103448.97;;;6.36;88.93
62725;BME280;49026;52.600;4.694;2023-02-04T03:11:25;103443.69;;;6.33;89.13
62725;BME280;49026;52.600;4.694;2023-02-04T03:13:53;103453.22;;;6.30;88.91
62725;BME280;49026;52.600;4.694;2023-02-04T03:16:19;103445.34;;;6.27;89.38
62725;BME280;49026;52.600;4.694;2023-02-04T03:18:45;103445.25;;;6.23;88.65
62725;BME280;49026;52.600;4.694;2023-02-04T03:21:11;103446.84;;;6.16;88.48
62725;BME280;49026;52.600;4.694;2023-02-04T03:23:36;103447.59;;;6.09;88.66
62725;BME280;49026;52.600;4.694;2023-02-04T03:26:03;103445.69;;;6.02;88.28
62725;BME280;49026;52.600;4.694;2023-02-04T03:28:29;103446.44;;;5.96;88.56
62725;BME280;49026;52.600;4.694;2023-02-04T03:30:55;103457.66;;;5.92;88.48
62725;BME280;49026;52.600;4.694;2023-02-04T03:33:27;103462.78;;;5.89;88.52
62725;BME280;49026;52.600;4.694;2023-02-04T03:35:58;103460.97;;;5.86;88.63
62725;BME280;49026;52.600;4.694;2023-02-04T03:38:28;103462.75;;;5.87;88.16
62725;BME280;49026;52.600;4.694;2023-02-04T03:40:54;103464.53;;;5.88;88.13
62725;BME280;49026;52.600;4.694;2023-02-04T03:43:19;103464.56;;;5.90;88.73
62725;BME280;49026;52.600;4.694;2023-02-04T03:45:44;103466.34;;;5.92;88.35
62725;BME280;49026;52.600;4.694;2023-02-04T03:48:10;103467.22;;;5.93;88.41
62725;BME280;49026;52.600;4.694;2023-02-04T03:50:35;103466.34;;;5.92;88.17
62725;BME280;49026;52.600;4.694;2023-02-04T03:53:00;103460.19;;;5.89;88.01
62725;BME280;49026;52.600;4.694;2023-02-04T03:55:26;103467.09;;;5.87;88.04
62725;BME280;49026;52.600;4.694;2023-02-04T03:57:52;103463.59;;;5.85;88.36
62725;BME280;49026;52.600;4.694;2023-02-04T04:00:18;103465.34;;;5.86;88.55
62725;BME280;49026;52.600;4.694;2023-02-04T04:02:43;103460.16;;;5.87;88.02
62725;BME280;49026;52.600;4.694;2023-02-04T04:05:09;103468.91;;;5.91;88.14
62725;BME280;49026;52.600;4.694;2023-02-04T04:07:35;103469.81;;;5.91;88.07
62725;BME280;49026;52.600;4.694;2023-02-04T04:10:00;103469.81;;;5.93;88.72
62725;BME280;49026;52.600;4.694;2023-02-04T04:12:25;103470.75;;;5.95;88.55
62725;BME280;49026;52.600;4.694;2023-02-04T04:14:51;103467.31;;;5.96;88.62
62725;BME280;49026;52.600;4.694;2023-02-04T04:17:16;103475.19;;;5.98;88.68
62725;BME280;49026;52.600;4.694;2023-02-04T04:19:41;103473.44;;;5.97;88.66
62725;BME280;49026;52.600;4.694;2023-02-04T04:22:09;103474.34;;;5.99;89.03
62725;BME280;49026;52.600;4.694;2023-02-04T04:24:36;103476.06;;;5.97;89.21
62725;BME280;49026;52.600;4.694;2023-02-04T04:27:04;103476.84;;;5.96;89.02
62725;BME280;49026;52.600;4.694;2023-02-04T04:29:31;103475.19;;;5.98;89.11
62725;BME280;49026;52.600;4.694;2023-02-04T04:31:57;103474.38;;;6.00;88.79
62725;BME280;49026;52.600;4.694;2023-02-04T04:34:27;103472.69;;;6.02;89.43
62725;BME280;49026;52.600;4.694;2023-02-04T04:36:55;103474.50;;;6.05;89.08
62725;BME280;49026;52.600;4.694;2023-02-04T04:39:20;103473.63;;;6.06;89.28
62725;BME280;49026;52.600;4.694;2023-02-04T04:41:46;103474.53;;;6.08;89.07
62725;BME280;49026;52.600;4.694;2023-02-04T04:44:14;103479.81;;;6.11;89.04
62725;BME280;49026;52.600;4.694;2023-02-04T04:46:39;103479.00;;;6.14;89.72
62725;BME280;49026;52.600;4.694;2023-02-04T04:49:06;103472.06;;;6.14;89.59
62725;BME280;49026;52.600;4.694;2023-02-04T04:51:32;103481.69;;;6.17;89.12
62725;BME280;49026;52.600;4.694;2023-02-04T04:53:58;103482.56;;;6.17;89.45
62725;BME280;49026;52.600;4.694;2023-02-04T04:56:23;103479.97;;;6.19;89.71
62725;BME280;49026;52.600;4.694;2023-02-04T04:58:49;103479.97;;;6.19;89.28
62725;BME280;49026;52.600;4.694;2023-02-04T05:01:14;103475.59;;;6.18;89.12
62725;BME280;49026;52.600;4.694;2023-02-04T05:03:39;103470.38;;;6.18;89.49
62725;BME280;49026;52.600;4.694;2023-02-04T05:06:05;103466.88;;;6.16;89.57
62725;BME280;49026;52.600;4.694;2023-02-04T05:08:30;103463.31;;;6.12;89.27
62725;BME280;49026;52.600;4.694;2023-02-04T05:10:55;103472.88;;;6.11;89.91
62725;BME280;49026;52.600;4.694;2023-02-04T05:13:20;103469.38;;;6.11;89.60
62725;BME280;49026;52.600;4.694;2023-02-04T05:15:49;103478.91;;;6.09;89.75
62725;BME280;49026;52.600;4.694;2023-02-04T05:18:14;103482.34;;;6.08;89.75
62725;BME280;49026;52.600;4.694;2023-02-04T05:20:39;103488.44;;;6.07;89.38
62725;BME280;49026;52.600;4.694;2023-02-04T05:23:05;103489.25;;;6.04;89.68
62725;BME280;49026;52.600;4.694;2023-02-04T05:25:30;103501.34;;;6.01;89.20
62725;BME280;49026;52.600;4.694;2023-02-04T05:28:05;103502.09;;;5.95;90.00
62725;BME280;49026;52.600;4.694;2023-02-04T05:30:31;103505.50;;;5.92;89.23
62725;BME280;49026;52.600;4.694;2023-02-04T05:32:56;103506.38;;;5.91;89.22
62725;BME280;49026;52.600;4.694;2023-02-04T05:35:21;103502.81;;;5.89;89.49
62725;BME280;49026;52.600;4.694;2023-02-04T05:37:49;103506.28;;;5.88;89.63
62725;BME280;49026;52.600;4.694;2023-02-04T05:40:14;103505.34;;;5.86;89.76
62725;BME280;49026;52.600;4.694;2023-02-04T05:42:40;103502.72;;;5.85;89.87
62725;BME280;49026;52.600;4.694;2023-02-04T05:45:06;103500.06;;;5.82;89.27
62725;BME280;49026;52.600;4.694;2023-02-04T05:47:31;103507.78;;;5.77;89.43
62725;BME280;49026;52.600;4.694;2023-02-04T05:49:57;103517.09;;;5.67;89.58
62725;BME280;49026;52.600;4.694;2023-02-04T05:52:24;103526.56;;;5.62;88.55
62725;BME280;49026;52.600;4.694;2023-02-04T05:54:50;103530.81;;;5.59;88.77
62725;BME280;49026;52.600;4.694;2023-02-04T05:57:15;103531.56;;;5.54;88.60
62725;BME280;49026;52.600;4.694;2023-02-04T05:59:40;103532.38;;;5.50;89.16
62725;BME280;49026;52.600;4.694;2023-02-04T06:02:05;103534.88;;;5.47;89.12
62725;BME280;49026;52.600;4.694;2023-02-04T06:04:31;103533.13;;;5.46;88.70
62725;BME280;49026;52.600;4.694;2023-02-04T06:06:56;103542.63;;;5.44;88.88
62725;BME280;49026;52.600;4.694;2023-02-04T06:09:21;103543.53;;;5.45;88.55
62725;BME280;49026;52.600;4.694;2023-02-04T06:11:47;103549.63;;;5.45;88.59
62725;BME280;49026;52.600;4.694;2023-02-04T06:14:14;103545.31;;;5.47;89.09
62725;BME280;49026;52.600;4.694;2023-02-04T06:16:42;103546.25;;;5.49;89.09
62725;BME280;49026;52.600;4.694;2023-02-04T06:19:07;103548.84;;;5.49;88.83
62725;BME280;49026;52.600;4.694;2023-02-04T06:21:32;103547.19;;;5.51;89.28
62725;BME280;49026;52.600;4.694;2023-02-04T06:23:58;103552.41;;;5.53;88.80
62725;BME280;49026;52.600;4.694;2023-02-04T06:26:28;103549.84;;;5.54;88.68
62725;BME280;49026;52.600;4.694;2023-02-04T06:28:54;103558.56;;;5.55;89.36
62725;BME280;49026;52.600;4.694;2023-02-04T06:31:19;103562.09;;;5.57;89.34
62725;BME280;49026;52.600;4.694;2023-02-04T06:33:44;103556.03;;;5.60;89.66
62725;BME280;49026;52.600;4.694;2023-02-04T06:36:10;103557.91;;;5.64;89.93
62725;BME280;49026;52.600;4.694;2023-02-04T06:38:35;103558.84;;;5.67;89.53
62725;BME280;49026;52.600;4.694;2023-02-04T06:41:01;103562.38;;;5.69;88.98
62725;BME280;49026;52.600;4.694;2023-02-04T06:43:26;103561.56;;;5.72;89.18
62725;BME280;49026;52.600;4.694;2023-02-04T06:45:53;103570.28;;;5.72;89.58
62725;BME280;49026;52.600;4.694;2023-02-04T06:48:19;103561.66;;;5.75;90.14
62725;BME280;49026;52.600;4.694;2023-02-04T06:50:44;103566.94;;;5.78;89.62
62725;BME280;49026;52.600;4.694;2023-02-04T06:53:09;103573.03;;;5.79;89.49
62725;BME280;49026;52.600;4.694;2023-02-04T06:55:35;103579.13;;;5.79;89.66
62725;BME280;49026;52.600;4.694;2023-02-04T06:58:03;103586.13;;;5.80;89.78
62725;BME280;49026;52.600;4.694;2023-02-04T07:00:28;103574.78;;;5.80;90.01
62725;BME280;49026;52.600;4.694;2023-02-04T07:02:55;103583.56;;;5.82;89.75
62725;BME280;49026;52.600;4.694;2023-02-04T07:05:21;103582.69;;;5.83;90.00
62725;BME280;49026;52.600;4.694;2023-02-04T07:07:47;103588.84;;;5.86;89.92
62725;BME280;49026;52.600;4.694;2023-02-04T07:10:12;103594.13;;;5.88;89.91
62725;BME280;49026;52.600;4.694;2023-02-04T07:12:40;103593.31;;;5.90;90.25
62725;BME280;49026;52.600;4.694;2023-02-04T07:15:06;103596.75;;;5.89;89.61
62725;BME280;49026;52.600;4.694;2023-02-04T07:17:31;103607.19;;;5.89;90.07
62725;BME280;49026;52.600;4.694;2023-02-04T07:19:56;103615.06;;;5.91;90.35
62725;BME280;49026;52.600;4.694;2023-02-04T07:22:21;103607.28;;;5.92;90.29
62725;BME280;49026;52.600;4.694;2023-02-04T07:24:49;103622.22;;;5.97;90.15
62725;BME280;49026;52.600;4.694;2023-02-04T07:27:17;103623.13;;;5.99;90.34
62725;BME280;49026;52.600;4.694;2023-02-04T07:29:44;103618.78;;;5.99;90.39
62725;BME280;49026;52.600;4.694;2023-02-04T07:32:09;103630.09;;;6.00;89.72
62725;BME280;49026;52.600;4.694;2023-02-04T07:34:35;103633.59;;;6.00;90.41
62725;BME280;49026;52.600;4.694;2023-02-04T07:37:00;103633.66;;;6.02;90.25
62725;BME280;49026;52.600;4.694;2023-02-04T07:39:25;103641.47;;;6.02;90.61
62725;BME280;49026;52.600;4.694;2023-02-04T07:41:51;103642.38;;;6.04;90.40
62725;BME280;49026;52.600;4.694;2023-02-04T07:44:16;103646.81;;;6.08;90.79
62725;BME280;49026;52.600;4.694;2023-02-04T07:46:44;103644.38;;;6.14;90.55
62725;BME280;49026;52.600;4.694;2023-02-04T07:49:09;103643.69;;;6.23;90.47
62725;BME280;49026;52.600;4.694;2023-02-04T07:51:41;103648.25;;;6.32;90.42
62725;BME280;49026;52.600;4.694;2023-02-04T07:54:06;103641.44;;;6.40;90.27
62725;BME280;49026;52.600;4.694;2023-02-04T07:56:31;103643.38;;;6.47;90.70
62725;BME280;49026;52.600;4.694;2023-02-04T07:58:59;103642.66;;;6.54;90.33
62725;BME280;49026;52.600;4.694;2023-02-04T08:01:24;103650.63;;;6.60;90.17
62725;BME280;49026;52.600;4.694;2023-02-04T08:03:51;103656.03;;;6.70;91.04
62725;BME280;49026;52.600;4.694;2023-02-04T08:06:19;103661.47;;;6.79;91.29
62725;BME280;49026;52.600;4.694;2023-02-04T08:08:44;103662.50;;;6.87;91.27
62725;BME280;49026;52.600;4.694;2023-02-04T08:11:09;103668.72;;;6.92;91.02
62725;BME280;49026;52.600;4.694;2023-02-04T08:13:35;103668.84;;;6.98;90.87
62725;BME280;49026;52.600;4.694;2023-02-04T08:16:03;103671.56;;;7.04;90.80
62725;BME280;49026;52.600;4.694;2023-02-04T08:18:31;103678.56;;;7.05;90.64
62725;BME280;49026;52.600;4.694;2023-02-04T08:20:56;103678.63;;;7.09;90.95
62725;BME280;49026;52.600;4.694;2023-02-04T08:23:23;103682.19;;;7.12;91.07
62725;BME280;49026;52.600;4.694;2023-02-04T08:25:48;103681.34;;;7.15;91.01
62725;BME280;49026;52.600;4.694;2023-02-04T08:28:13;103679.69;;;7.20;91.14
62725;BME280;49026;52.600;4.694;2023-02-04T08:30:41;103680.69;;;7.25;91.38
62725;BME280;49026;52.600;4.694;2023-02-04T08:33:06;103679.09;;;7.32;91.54
62725;BME280;49026;52.600;4.694;2023-02-04T08:35:31;103687.06;;;7.39;91.91
62725;BME280;49026;52.600;4.694;2023-02-04T08:37:57;103692.41;;;7.46;91.60
62725;BME280;49026;52.600;4.694;2023-02-04T08:40:22;103691.91;;;7.67;92.36
62725;BME280;49026;52.600;4.694;2023-02-04T08:42:47;103689.53;;;7.79;91.29
62725;BME280;49026;52.600;4.694;2023-02-04T08:45:13;103686.22;;;7.91;91.59
62725;BME280;49026;52.600;4.694;2023-02-04T08:47:38;103684.66;;;8.02;91.39
62725;BME280;49026;52.600;4.694;2023-02-04T08:50:04;103691.75;;;8.09;91.84
62725;BME280;49026;52.600;4.694;2023-02-04T08:52:29;103687.41;;;8.11;91.41
62725;BME280;49026;52.600;4.694;2023-02-04T08:54:54;103688.31;;;8.13;92.33
62725;BME280;49026;52.600;4.694;2023-02-04T08:57:19;103697.22;;;8.25;92.15
62725;BME280;49026;52.600;4.694;2023-02-04T08:59:45;103691.25;;;8.32;92.03
62725;BME280;49026;52.600;4.694;2023-02-04T09:02:10;103702.69;;;8.40;92.19
62725;BME280;49026;52.600;4.694;2023-02-04T09:04:38;103700.28;;;8.52;92.15
62725;BME280;49026;52.600;4.694;2023-02-04T09:07:04;103703.97;;;8.67;92.34
62725;BME280;49026;52.600;4.694;2023-02-04T09:09:31;103699.81;;;8.81;91.97
62725;BME280;49026;52.600;4.694;2023-02-04T09:11:59;103694.72;;;8.95;91.98
62725;BME280;49026;52.600;4.694;2023-02-04T09:14:26;103695.72;;;9.05;91.95
62725;BME280;49026;52.600;4.694;2023-02-04T09:16:51;103700.22;;;9.12;92.06
62725;BME280;49026;52.600;4.694;2023-02-04T09:19:16;103700.28;;;9.20;91.97
62725;BME280;49026;52.600;4.694;2023-02-04T09:21:48;103708.28;;;9.31;91.98
62725;BME280;49026;52.600;4.694;2023-02-04T09:24:13;103714.50;;;9.39;92.12
62725;BME280;49026;52.600;4.694;2023-02-04T09:26:38;103716.38;;;9.52;92.46
62725;BME280;49026;52.600;4.694;2023-02-04T09:29:03;103716.50;;;9.64;92.02
62725;BME280;49026;52.600;4.694;2023-02-04T09:31:29;103725.28;;;9.70;91.84
62725;BME280;49026;52.600;4.694;2023-02-04T09:33:54;103737.53;;;9.68;91.55
62725;BME280;49026;52.600;4.694;2023-02-04T09:36:22;103730.44;;;9.60;91.57
62725;BME280;49026;52.600;4.694;2023-02-04T09:38:47;103730.44;;;9.57;91.85
62725;BME280;49026;52.600;4.694;2023-02-04T09:41:13;103733.94;;;9.58;92.01
62725;BME280;49026;52.600;4.694;2023-02-04T09:43:42;103735.69;;;9.57;92.04
62725;BME280;49026;52.600;4.694;2023-02-04T09:46:17;103737.38;;;9.52;91.92
62725;BME280;49026;52.600;4.694;2023-02-04T09:48:46;103745.28;;;9.57;92.43
62725;BME280;49026;52.600;4.694;2023-02-04T09:51:16;103743.66;;;9.68;92.43
62725;BME280;49026;52.600;4.694;2023-02-04T09:53:44;103741.16;;;9.82;92.79
62725;BME280;49026;52.600;4.694;2023-02-04T09:56:11;103748.31;;;9.98;92.54
62725;BME280;49026;52.600;4.694;2023-02-04T09:58:38;103750.16;;;10.09;92.10
62725;BME280;49026;52.600;4.694;2023-02-04T10:01:13;103752.00;;;10.20;92.54
62725;BME280;49026;52.600;4.694;2023-02-04T10:03:40;103754.72;;;10.31;92.29
62725;BME280;49026;52.600;4.694;2023-02-04T10:06:19;103757.44;;;10.36;92.27
62725;BME280;49026;52.600;4.694;2023-02-04T10:08:45;103757.34;;;10.31;92.18
62725;BME280;49026;52.600;4.694;2023-02-04T10:11:12;103762.56;;;10.25;92.35
62725;BME280;49026;52.600;4.694;2023-02-04T10:13:44;103760.81;;;10.29;92.78
62725;BME280;49026;52.600;4.694;2023-02-04T10:16:14;103765.28;;;10.33;92.85
62725;BME280;49026;52.600;4.694;2023-02-04T10:18:40;103763.56;;;10.36;92.88
62725;BME280;49026;52.600;4.694;2023-02-04T10:21:17;103767.06;;;10.38;92.95
62725;BME280;49026;52.600;4.694;2023-02-04T10:23:50;103767.16;;;10.48;93.29
62725;BME280;49026;52.600;4.694;2023-02-04T10:26:22;103773.25;;;10.44;92.78
62725;BME280;49026;52.600;4.694;2023-02-04T10:28:48;103774.13;;;10.47;93.31
62725;BME280;49026;52.600;4.694;2023-02-04T10:31:33;103769.88;;;10.65;93.25
62725;BME280;49026;52.600;4.694;2023-02-04T10:34:22;103767.22;;;10.60;92.18
62725;BME280;49026;52.600;4.694;2023-02-04T10:36:52;103770.59;;;10.39;91.98
62725;BME280;49026;52.600;4.694;2023-02-04T10:39:24;103759.19;;;10.38;92.59
62725;BME280;49026;52.600;4.694;2023-02-04T10:41:52;103768.00;;;10.47;93.00
62725;BME280;49026;52.600;4.694;2023-02-04T10:44:24;103771.63;;;10.60;92.78
62725;BME280;49026;52.600;4.694;2023-02-04T10:47:00;103767.19;;;10.55;91.85
62725;BME280;49026;52.600;4.694;2023-02-04T10:49:26;103765.44;;;10.54;92.34
62725;BME280;49026;52.600;4.694;2023-02-04T10:51:52;103759.38;;;10.65;92.41
62725;BME280;49026;52.600;4.694;2023-02-04T10:54:23;103764.56;;;10.57;91.96
62725;BME280;49026;52.600;4.694;2023-02-04T10:57:13;103766.25;;;10.49;92.07
62725;BME280;49026;52.600;4.694;2023-02-04T10:59:41;103761.81;;;10.38;92.25
62725;BME280;49026;52.600;4.694;2023-02-04T11:02:35;103760.75;;;10.18;91.28
62725;BME280;49026;52.600;4.694;2023-02-04T11:05:02;103757.81;;;9.82;90.74
62725;BME280;49026;52.600;4.694;2023-02-04T11:07:29;103759.25;;;9.51;90.39
62725;BME280;49026;52.600;4.694;2023-02-04T11:09:55;103759.00;;;9.30;90.79
62725;BME280;49026;52.600;4.694;2023-02-04T11:12:34;103759.78;;;9.21;90.91
62725;BME280;49026;52.600;4.694;2023-02-04T11:15:00;103761.44;;;9.14;90.68
62725;BME280;49026;52.600;4.694;2023-02-04T11:17:30;103754.47;;;9.16;90.69
62725;BME280;49026;52.600;4.694;2023-02-04T11:19:57;103758.00;;;9.21;90.68
62725;BME280;49026;52.600;4.694;2023-02-04T11:22:40;103762.38;;;9.21;90.57
62725;BME280;49026;52.600;4.694;2023-02-04T11:25:30;103763.41;;;9.34;90.40
62725;BME280;49026;52.600;4.694;2023-02-04T11:27:56;103762.50;;;9.30;89.62
62725;BME280;49026;52.600;4.694;2023-02-04T11:30:22;103759.69;;;9.16;88.79
62725;BME280;49026;52.600;4.694;2023-02-04T11:33:23;103749.78;;;8.94;88.58
62725;BME280;49026;52.600;4.694;2023-02-04T11:36:03;103751.47;;;8.88;89.15
62725;BME280;49026;52.600;4.694;2023-02-04T11:38:32;103749.78;;;8.92;89.03
62725;BME280;49026;52.600;4.694;2023-02-04T11:41:15;103762.94;;;8.97;88.95
62725;BME280;49026;52.600;4.694;2023-02-04T11:43:44;103756.81;;;8.96;88.64
62725;BME280;49026;52.600;4.694;2023-02-04T11:46:12;103763.84;;;8.97;88.73
62725;BME280;49026;52.600;4.694;2023-02-04T11:48:40;103762.13;;;9.01;88.89
62725;BME280;49026;52.600;4.694;2023-02-04T11:51:15;103752.66;;;9.12;88.55
62725;BME280;49026;52.600;4.694;2023-02-04T11:53:42;103751.91;;;9.21;88.25
62725;BME280;49026;52.600;4.694;2023-02-04T11:56:17;103755.44;;;9.24;87.88
62725;BME280;49026;52.600;4.694;2023-02-04T11:58:43;103761.53;;;9.23;87.45
62725;BME280;49026;52.600;4.694;2023-02-04T12:01:16;103761.56;;;9.25;87.61
62725;BME280;49026;52.600;4.694;2023-02-04T12:03:47;103759.88;;;9.32;87.55
62725;BME280;49026;52.600;4.694;2023-02-04T12:06:21;103759.91;;;9.35;87.39
62725;BME280;49026;52.600;4.694;2023-02-04T12:08:46;103767.81;;;9.36;87.63
62725;BME280;49026;52.600;4.694;2023-02-04T12:11:23;103766.97;;;9.39;87.38
62725;BME280;49026;52.600;4.694;2023-02-04T12:13:53;103773.91;;;9.35;87.64
62725;BME280;49026;52.600;4.694;2023-02-04T12:16:18;103770.34;;;9.28;87.10
62725;BME280;49026;52.600;4.694;2023-02-04T12:18:44;103771.94;;;9.14;86.59
62725;BME280;49026;52.600;4.694;2023-02-04T12:21:09;103763.06;;;9.04;86.76
62725;BME280;49026;52.600;4.694;2023-02-04T12:23:35;103769.13;;;9.02;87.04
62725;BME280;49026;52.600;4.694;2023-02-04T12:26:00;103769.09;;;9.00;86.90
62725;BME280;49026;52.600;4.694;2023-02-04T12:28:25;103769.97;;;8.99;86.78
62725;BME280;49026;52.600;4.694;2023-02-04T12:30:52;103763.03;;;9.03;87.16
62725;BME280;49026;52.600;4.694;2023-02-04T12:33:20;103766.66;;;9.13;87.20
62725;BME280;49026;52.600;4.694;2023-02-04T12:35:52;103765.00;;;9.19;86.89
62725;BME280;49026;52.600;4.694;2023-02-04T12:38:18;103768.56;;;9.24;86.79
62725;BME280;49026;52.600;4.694;2023-02-04T12:40:43;103772.06;;;9.26;86.55
62725;BME280;49026;52.600;4.694;2023-02-04T12:43:11;103773.84;;;9.27;86.46
62725;BME280;49026;52.600;4.694;2023-02-04T12:45:38;103763.25;;;9.21;86.43
62725;BME280;49026;52.600;4.694;2023-02-04T12:48:09;103758.84;;;9.16;86.40
62725;BME280;49026;52.600;4.694;2023-02-04T12:50:34;103762.19;;;9.07;86.29
62725;BME280;49026;52.600;4.694;2023-02-04T12:53:02;103754.31;;;9.04;86.74
62725;BME280;49026;52.600;4.694;2023-02-04T12:55:28;103748.13;;;8.99;86.41
62725;BME280;49026;52.600;4.694;2023-02-04T12:57:54;103755.00;;;8.89;86.72
62725;BME280;49026;52.600;4.694;2023-02-04T13:00:20;103758.31;;;8.77;86.92
62725;BME280;49026;52.600;4.694;2023-02-04T13:02:46;103752.16;;;8.75;87.01